Time;durP1;ratioP1;P1;durP2;ratioP2;P2;SDS_P1;SDS_P2;PMS_P1;PMS_P2;Temp;Humidity;BMP_temperature;BMP_pressure;BME280_temperature;BME280_humidity;BME280_pressure;Samples;Min_cycle;Max_cycle;Signal;HPM_P1;HPM_P2
2023/04/22 00:02:07;;;;;;;39.40;21.50;;;;;;;;;;107950;1248;25470;-79
2023/04/22 00:04:33;;;;;;;32.80;20.90;;;;;;;;;;107887;1247;22563;-79
2023/04/22 00:07:00;;;;;;;34.00;19.80;;;;;;;;;;107922;1247;22548;-79
2023/04/22 00:09:26;;;;;;;36.50;21.30;;;;;;;;;;107710;1250;22764;-79
2023/04/22 00:11:53;;;;;;;38.10;19.90;;;;;;;;;;107861;1248;23773;-79
2023/04/22 00:14:19;;;;;;;38.80;19.50;;;;;;;;;;107684;1247;25485;-81
2023/04/22 00:16:46;;;;;;;34.90;18.60;;;;;;;;;;107960;1248;22519;-80
2023/04/22 00:19:12;;;;;;;39.10;19.70;;;;;;;;;;107889;1247;24220;-80
2023/04/22 00:21:38;;;;;;;36.90;19.60;;;;;;;;;;107903;1248;22521;-79
2023/04/22 00:24:05;;;;;;;36.20;21.00;;;;;;;;;;107904;1248;22554;-78
2023/04/22 00:26:31;;;;;;;41.10;21.30;;;;;;;;;;107918;1248;22546;-78
2023/04/22 00:28:57;;;;;;;39.20;21.80;;;;;;;;;;107998;1248;22520;-78
2023/04/22 00:31:24;;;;;;;42.70;23.70;;;;;;;;;;108079;1248;27610;-78
2023/04/22 00:33:50;;;;;;;39.50;22.00;;;;;;;;;;108057;1248;22531;-78
2023/04/22 00:36:16;;;;;;;35.10;20.80;;;;;;;;;;108060;1248;22517;-78
2023/04/22 00:38:47;;;;;;;42.40;21.00;;;;;;;;;;108063;1248;22627;-78
2023/04/22 00:41:14;;;;;;;40.40;21.20;;;;;;;;;;108081;1248;24923;-78
2023/04/22 00:43:40;;;;;;;36.30;23.00;;;;;;;;;;108053;1248;23604;-80
2023/04/22 00:46:07;;;;;;;35.90;21.10;;;;;;;;;;108121;1248;25284;-79
2023/04/22 00:48:34;;;;;;;35.70;20.80;;;;;;;;;;108665;1247;24204;-80
2023/04/22 00:51:01;;;;;;;34.40;18.90;;;;;;;;;;108743;1252;22633;-78
2023/04/22 00:53:27;;;;;;;42.60;21.90;;;;;;;;;;108120;1248;22958;-80
2023/04/22 00:55:53;;;;;;;33.60;19.10;;;;;;;;;;108090;1248;23773;-80
2023/04/22 00:58:20;;;;;;;30.40;18.70;;;;;;;;;;108509;1252;22566;-81
2023/04/22 01:00:46;;;;;;;32.30;17.80;;;;;;;;;;108537;1252;22529;-80
2023/04/22 01:03:13;;;;;;;30.20;17.80;;;;;;;;;;108446;1248;24266;-81
2023/04/22 01:05:39;;;;;;;36.60;19.90;;;;;;;;;;108327;1247;24110;-81
2023/04/22 01:08:05;;;;;;;30.30;18.70;;;;;;;;;;108280;1251;25210;-80
2023/04/22 01:10:32;;;;;;;31.40;18.10;;;;;;;;;;108492;1247;25330;-80
2023/04/22 01:12:58;;;;;;;29.40;16.60;;;;;;;;;;108513;1249;22580;-80
2023/04/22 01:15:25;;;;;;;27.80;17.30;;;;;;;;;;108528;1247;25505;-80
2023/04/22 01:17:52;;;;;;;36.20;18.20;;;;;;;;;;108488;1248;23264;-80
2023/04/22 01:20:19;;;;;;;30.20;17.80;;;;;;;;;;108563;1248;25243;-80
2023/04/22 01:22:46;;;;;;;31.30;17.70;;;;;;;;;;108522;1253;22570;-81
2023/04/22 01:25:12;;;;;;;36.00;17.50;;;;;;;;;;108493;1248;23795;-81
2023/04/22 01:27:39;;;;;;;36.90;18.20;;;;;;;;;;108535;1252;23350;-78
2023/04/22 01:30:06;;;;;;;31.70;19.10;;;;;;;;;;108118;1248;22556;-78
2023/04/22 01:32:32;;;;;;;29.40;17.60;;;;;;;;;;108063;1248;26068;-78
2023/04/22 01:34:58;;;;;;;33.90;15.60;;;;;;;;;;108054;1247;24216;-77
2023/04/22 01:37:25;;;;;;;31.20;16.90;;;;;;;;;;108072;1248;22641;-78
2023/04/22 01:39:51;;;;;;;27.10;16.00;;;;;;;;;;108074;1248;22660;-78
2023/04/22 01:42:17;;;;;;;31.20;18.40;;;;;;;;;;108092;1251;25376;-78
2023/04/22 01:44:44;;;;;;;35.30;17.00;;;;;;;;;;108116;1252;22608;-77
2023/04/22 01:47:12;;;;;;;34.20;20.00;;;;;;;;;;108076;1248;22515;-78
2023/04/22 01:49:38;;;;;;;34.50;17.70;;;;;;;;;;108102;1248;23260;-78
2023/04/22 01:52:05;;;;;;;34.50;18.80;;;;;;;;;;108104;1248;22519;-78
2023/04/22 01:54:31;;;;;;;35.10;16.80;;;;;;;;;;108152;1248;22544;-77
2023/04/22 01:56:58;;;;;;;32.70;17.10;;;;;;;;;;108022;1247;22640;-78
2023/04/22 01:59:24;;;;;;;32.30;18.30;;;;;;;;;;107766;1247;149861;-78
2023/04/22 02:01:51;;;;;;;34.40;17.80;;;;;;;;;;107843;1248;22543;-80
2023/04/22 02:04:17;;;;;;;29.40;17.20;;;;;;;;;;108512;1247;24219;-80
2023/04/22 02:06:44;;;;;;;34.00;18.70;;;;;;;;;;108355;1248;22563;-80
2023/04/22 02:09:10;;;;;;;32.90;20.30;;;;;;;;;;108495;1247;23864;-80
2023/04/22 02:11:36;;;;;;;38.70;21.50;;;;;;;;;;108528;1252;22520;-80
2023/04/22 02:14:03;;;;;;;32.70;20.10;;;;;;;;;;108534;1247;22592;-80
2023/04/22 02:16:29;;;;;;;33.00;19.30;;;;;;;;;;108468;1247;24406;-80
2023/04/22 02:18:56;;;;;;;33.00;19.00;;;;;;;;;;108473;1247;22610;-80
2023/04/22 02:21:22;;;;;;;37.00;19.40;;;;;;;;;;108507;1253;22549;-80
2023/04/22 02:23:49;;;;;;;29.90;18.50;;;;;;;;;;108437;1253;22556;-80
2023/04/22 02:26:15;;;;;;;33.80;19.60;;;;;;;;;;108473;1248;24174;-80
2023/04/22 02:28:41;;;;;;;26.00;11.90;;;;;;;;;;108573;1248;22588;-80
2023/04/22 02:31:08;;;;;;;34.80;18.40;;;;;;;;;;108627;1247;23262;-80
2023/04/22 02:33:35;;;;;;;38.40;20.50;;;;;;;;;;108699;1248;22528;-80
2023/04/22 02:36:01;;;;;;;34.50;19.60;;;;;;;;;;108712;1248;25214;-80
2023/04/22 02:38:27;;;;;;;33.90;19.60;;;;;;;;;;108612;1247;22531;-80
2023/04/22 02:40:54;;;;;;;31.20;18.70;;;;;;;;;;108681;1247;22580;-80
2023/04/22 02:43:20;;;;;;;30.90;18.60;;;;;;;;;;108392;1248;23235;-80
2023/04/22 02:45:47;;;;;;;31.60;19.00;;;;;;;;;;108343;1248;24189;-80
2023/04/22 02:48:13;;;;;;;29.10;18.00;;;;;;;;;;108662;1248;24331;-80
2023/04/22 02:50:40;;;;;;;34.60;19.30;;;;;;;;;;108753;1248;25370;-80
2023/04/22 02:53:06;;;;;;;31.00;18.70;;;;;;;;;;108664;1248;22546;-80
2023/04/22 02:55:33;;;;;;;36.30;21.20;;;;;;;;;;108651;1248;23190;-80
2023/04/22 02:57:59;;;;;;;32.20;18.00;;;;;;;;;;108318;1251;22534;-80
2023/04/22 03:00:26;;;;;;;33.20;16.90;;;;;;;;;;111000;1248;22301;-78
2023/04/22 03:02:52;;;;;;;30.50;16.70;;;;;;;;;;110760;1247;23383;-78
2023/04/22 03:05:19;;;;;;;29.80;16.10;;;;;;;;;;107910;1252;27344;-80
2023/04/22 03:07:46;;;;;;;35.00;17.90;;;;;;;;;;108463;1252;25194;-80
2023/04/22 03:10:12;;;;;;;32.30;17.80;;;;;;;;;;108499;1248;22528;-80
2023/04/22 03:12:39;;;;;;;29.10;16.20;;;;;;;;;;108528;1253;23236;-80
2023/04/22 03:15:06;;;;;;;35.60;18.00;;;;;;;;;;108532;1248;23280;-78
2023/04/22 03:17:33;;;;;;;34.00;20.60;;;;;;;;;;107915;1248;22532;-80
2023/04/22 03:19:59;;;;;;;34.20;20.00;;;;;;;;;;107937;1250;22636;-80
2023/04/22 03:22:26;;;;;;;34.90;20.40;;;;;;;;;;107902;1250;22537;-80
2023/04/22 03:24:52;;;;;;;35.80;18.80;;;;;;;;;;107948;1247;25389;-80
2023/04/22 03:27:19;;;;;;;31.40;18.10;;;;;;;;;;108947;1247;22266;-79
2023/04/22 03:29:45;;;;;;;28.30;17.10;;;;;;;;;;111114;1248;22344;-78
2023/04/22 03:32:11;;;;;;;31.40;17.90;;;;;;;;;;111135;1247;22855;-78
2023/04/22 03:34:38;;;;;;;27.50;16.30;;;;;;;;;;111115;1248;22221;-78
2023/04/22 03:37:04;;;;;;;28.90;17.50;;;;;;;;;;111115;1247;22258;-78
2023/04/22 03:39:30;;;;;;;28.30;16.50;;;;;;;;;;111126;1248;22493;-78
2023/04/22 03:41:57;;;;;;;30.30;18.20;;;;;;;;;;109219;1248;22543;-78
2023/04/22 03:44:23;;;;;;;22.70;14.60;;;;;;;;;;108091;1248;25138;-78
2023/04/22 03:46:50;;;;;;;32.70;18.50;;;;;;;;;;108104;1248;23145;-78
2023/04/22 03:49:16;;;;;;;31.20;17.50;;;;;;;;;;108103;1248;22552;-80
2023/04/22 03:51:42;;;;;;;29.40;17.40;;;;;;;;;;108655;1248;22527;-80
2023/04/22 03:54:09;;;;;;;31.20;16.50;;;;;;;;;;108681;1248;23536;-80
2023/04/22 03:56:35;;;;;;;26.90;16.20;;;;;;;;;;108644;1252;25408;-80
2023/04/22 03:59:02;;;;;;;22.90;14.60;;;;;;;;;;108502;1251;22545;-80
2023/04/22 04:01:28;;;;;;;28.50;16.80;;;;;;;;;;108499;1251;22673;-80
2023/04/22 04:03:55;;;;;;;24.20;15.60;;;;;;;;;;108402;1248;22547;-80
2023/04/22 04:06:21;;;;;;;29.00;17.70;;;;;;;;;;108286;1248;25338;-79
2023/04/22 04:08:47;;;;;;;36.30;18.20;;;;;;;;;;108489;1248;23370;-80
2023/04/22 04:11:14;;;;;;;34.00;16.50;;;;;;;;;;108568;1248;22572;-80
2023/04/22 04:13:40;;;;;;;33.90;19.00;;;;;;;;;;108492;1253;22533;-80
2023/04/22 04:16:07;;;;;;;31.90;20.30;;;;;;;;;;108604;1249;22599;-80
2023/04/22 04:18:33;;;;;;;30.90;18.00;;;;;;;;;;108501;1248;22713;-80
2023/04/22 04:21:00;;;;;;;30.00;17.60;;;;;;;;;;108637;1251;23224;-80
2023/04/22 04:23:26;;;;;;;33.80;19.00;;;;;;;;;;108478;1251;22563;-80
2023/04/22 04:25:53;;;;;;;32.50;18.90;;;;;;;;;;108525;1251;22640;-80
2023/04/22 04:28:19;;;;;;;28.70;16.40;;;;;;;;;;108431;1253;24209;-80
2023/04/22 04:30:46;;;;;;;30.30;17.80;;;;;;;;;;108575;1252;22534;-80
2023/04/22 04:33:12;;;;;;;34.50;18.00;;;;;;;;;;108428;1248;22519;-80
2023/04/22 04:35:38;;;;;;;31.80;17.90;;;;;;;;;;108504;1251;22533;-80
2023/04/22 04:38:05;;;;;;;26.50;16.30;;;;;;;;;;108260;1254;22581;-80
2023/04/22 04:40:32;;;;;;;26.40;17.40;;;;;;;;;;108522;1251;22735;-77
2023/04/22 04:43:01;;;;;;;36.10;18.30;;;;;;;;;;107890;1252;22535;-78
2023/04/22 04:45:28;;;;;;;26.80;17.50;;;;;;;;;;107892;1248;24285;-78
2023/04/22 04:47:54;;;;;;;32.60;17.80;;;;;;;;;;107868;1253;25461;-78
2023/04/22 04:50:21;;;;;;;27.20;16.30;;;;;;;;;;107883;1252;22521;-78
2023/04/22 04:52:48;;;;;;;29.60;17.30;;;;;;;;;;107883;1248;22701;-77
2023/04/22 04:55:14;;;;;;;30.60;15.80;;;;;;;;;;107901;1253;23154;-79
2023/04/22 04:57:42;;;;;;;30.40;18.80;;;;;;;;;;107785;1253;22547;-80
2023/04/22 05:00:09;;;;;;;30.40;18.60;;;;;;;;;;107894;1253;22640;-80
2023/04/22 05:02:35;;;;;;;33.10;19.50;;;;;;;;;;107888;1253;22523;-79
2023/04/22 05:05:05;;;;;;;32.30;19.10;;;;;;;;;;107863;1253;22535;-80
2023/04/22 05:07:31;;;;;;;32.70;18.40;;;;;;;;;;107867;1248;24269;-80
2023/04/22 05:09:58;;;;;;;34.20;19.90;;;;;;;;;;107873;1253;25272;-80
2023/04/22 05:12:25;;;;;;;30.70;17.20;;;;;;;;;;107881;1248;22998;-80
2023/04/22 05:14:51;;;;;;;30.90;16.30;;;;;;;;;;107887;1248;25335;-80
2023/04/22 05:17:18;;;;;;;29.30;18.90;;;;;;;;;;107837;1254;22554;-80
2023/04/22 05:19:44;;;;;;;29.70;18.20;;;;;;;;;;107883;1253;22529;-80
2023/04/22 05:22:11;;;;;;;31.70;17.80;;;;;;;;;;107857;1253;22541;-80
2023/04/22 05:24:37;;;;;;;27.30;18.50;;;;;;;;;;107923;1253;25322;-80
2023/04/22 05:27:03;;;;;;;32.30;17.20;;;;;;;;;;107849;1247;22525;-80
2023/04/22 05:29:30;;;;;;;31.00;17.10;;;;;;;;;;108066;1248;22534;-80
2023/04/22 05:31:57;;;;;;;25.90;16.70;;;;;;;;;;108129;1248;22991;-80
2023/04/22 05:34:23;;;;;;;27.50;16.30;;;;;;;;;;108090;1247;23226;-80
2023/04/22 05:36:49;;;;;;;32.30;16.80;;;;;;;;;;108117;1248;22519;-80
2023/04/22 05:39:16;;;;;;;31.20;17.60;;;;;;;;;;108098;1249;24270;-80
2023/04/22 05:41:42;;;;;;;36.40;19.20;;;;;;;;;;108690;1248;22544;-80
2023/04/22 05:44:09;;;;;;;27.30;17.60;;;;;;;;;;108675;1251;25357;-80
2023/04/22 05:46:35;;;;;;;28.60;16.90;;;;;;;;;;108346;1248;23772;-80
2023/04/22 05:49:02;;;;;;;27.20;17.00;;;;;;;;;;108791;1248;22614;-80
2023/04/22 05:51:28;;;;;;;31.00;17.80;;;;;;;;;;108695;1248;24346;-80
2023/04/22 05:53:54;;;;;;;27.40;17.80;;;;;;;;;;108689;1247;25280;-80
2023/04/22 05:56:21;;;;;;;26.90;17.40;;;;;;;;;;108588;1248;22518;-80
2023/04/22 05:58:48;;;;;;;30.10;18.80;;;;;;;;;;108431;1247;22590;-80
2023/04/22 06:01:14;;;;;;;28.80;17.30;;;;;;;;;;108457;1248;24230;-80
2023/04/22 06:03:40;;;;;;;31.00;18.70;;;;;;;;;;108471;1248;22530;-80
2023/04/22 06:06:07;;;;;;;27.60;16.70;;;;;;;;;;108405;1252;23829;-80
2023/04/22 06:08:33;;;;;;;26.90;16.60;;;;;;;;;;108484;1253;22525;-80
2023/04/22 06:10:59;;;;;;;28.20;15.70;;;;;;;;;;108484;1247;22567;-80
2023/04/22 06:13:26;;;;;;;32.20;17.40;;;;;;;;;;108546;1248;22469;-80
2023/04/22 06:15:53;;;;;;;45.70;18.70;;;;;;;;;;108522;1247;25460;-80
2023/04/22 06:18:19;;;;;;;23.60;15.50;;;;;;;;;;108545;1248;22783;-80
2023/04/22 06:20:45;;;;;;;25.40;16.80;;;;;;;;;;108572;1252;25325;-80
2023/04/22 06:23:12;;;;;;;21.00;14.70;;;;;;;;;;108453;1247;24274;-80
2023/04/22 06:25:38;;;;;;;25.80;13.00;;;;;;;;;;108489;1252;25312;-80
2023/04/22 06:28:04;;;;;;;23.60;13.50;;;;;;;;;;108476;1248;24412;-80
2023/04/22 06:30:31;;;;;;;21.50;13.40;;;;;;;;;;108648;1248;23268;-79
2023/04/22 06:32:57;;;;;;;17.80;12.40;;;;;;;;;;108600;1248;23196;-80
2023/04/22 06:35:23;;;;;;;24.00;15.00;;;;;;;;;;108666;1248;22502;-80
2023/04/22 06:37:50;;;;;;;25.40;15.30;;;;;;;;;;108551;1248;24113;-81
2023/04/22 06:40:16;;;;;;;19.50;13.90;;;;;;;;;;108268;1248;23205;-81
2023/04/22 06:42:42;;;;;;;23.40;13.50;;;;;;;;;;108497;1248;22524;-80
2023/04/22 06:45:11;;;;;;;22.00;14.00;;;;;;;;;;108558;1247;22547;-78
2023/04/22 06:47:38;;;;;;;23.60;13.20;;;;;;;;;;107873;1248;22658;-81
2023/04/22 06:50:06;;;;;;;21.50;13.60;;;;;;;;;;108393;1247;22624;-78
2023/04/22 06:52:32;;;;;;;21.80;15.00;;;;;;;;;;107909;1248;22562;-80
2023/04/22 06:54:58;;;;;;;22.60;14.60;;;;;;;;;;108563;1247;24213;-78
2023/04/22 06:57:25;;;;;;;23.50;15.20;;;;;;;;;;107850;1247;25322;-80
2023/04/22 06:59:51;;;;;;;25.10;14.40;;;;;;;;;;108427;1247;22543;-78
2023/04/22 07:02:17;;;;;;;24.70;14.60;;;;;;;;;;107892;1248;22527;-79
2023/04/22 07:04:44;;;;;;;27.00;16.60;;;;;;;;;;107801;1248;22518;-78
2023/04/22 07:07:10;;;;;;;22.30;14.40;;;;;;;;;;107876;1248;22628;-78
2023/04/22 07:09:36;;;;;;;25.30;16.20;;;;;;;;;;107883;1253;22529;-78
2023/04/22 07:12:03;;;;;;;26.20;14.80;;;;;;;;;;108024;1248;23220;-79
2023/04/22 07:14:30;;;;;;;24.50;14.70;;;;;;;;;;107788;1248;26422;-79
2023/04/22 07:16:57;;;;;;;21.90;15.30;;;;;;;;;;107837;1247;23258;-79
2023/04/22 07:19:24;;;;;;;21.60;12.90;;;;;;;;;;107820;1247;25399;-78
2023/04/22 07:21:50;;;;;;;23.30;11.50;;;;;;;;;;107741;1247;25308;-79
2023/04/22 07:24:17;;;;;;;14.70;10.40;;;;;;;;;;107992;1248;24186;-79
2023/04/22 07:26:43;;;;;;;14.30;10.00;;;;;;;;;;107922;1248;24426;-79
2023/04/22 07:29:11;;;;;;;19.70;11.30;;;;;;;;;;107940;1247;25309;-79
2023/04/22 07:31:38;;;;;;;15.30;10.40;;;;;;;;;;107673;1247;24232;-80
2023/04/22 07:34:04;;;;;;;16.40;10.30;;;;;;;;;;108402;1247;22525;-80
2023/04/22 07:36:33;;;;;;;17.10;11.00;;;;;;;;;;108590;1248;22530;-79
2023/04/22 07:39:00;;;;;;;18.90;11.50;;;;;;;;;;108542;1248;26374;-79
2023/04/22 07:41:26;;;;;;;16.10;9.80;;;;;;;;;;108282;1251;22571;-79
2023/04/22 07:43:52;;;;;;;13.80;9.00;;;;;;;;;;108490;1251;22557;-79
2023/04/22 07:46:19;;;;;;;14.10;7.90;;;;;;;;;;107681;1247;22534;-79
2023/04/22 07:48:46;;;;;;;11.30;8.50;;;;;;;;;;107846;1247;24249;-80
2023/04/22 07:51:12;;;;;;;13.50;9.10;;;;;;;;;;107989;1251;22543;-80
2023/04/22 07:53:38;;;;;;;14.20;8.90;;;;;;;;;;108047;1248;22525;-79
2023/04/22 07:56:05;;;;;;;11.70;8.10;;;;;;;;;;107972;1247;22521;-80
2023/04/22 07:58:31;;;;;;;15.50;8.80;;;;;;;;;;108016;1247;25383;-79
2023/04/22 08:00:58;;;;;;;13.20;7.60;;;;;;;;;;108016;1253;25236;-80
2023/04/22 08:03:24;;;;;;;13.20;7.60;;;;;;;;;;108047;1248;22982;-80
2023/04/22 08:05:51;;;;;;;13.50;8.20;;;;;;;;;;107919;1250;22755;-80
2023/04/22 08:08:17;;;;;;;10.00;7.20;;;;;;;;;;107919;1247;25374;-80
2023/04/22 08:10:43;;;;;;;8.60;5.90;;;;;;;;;;107687;1247;25374;-80
2023/04/22 08:13:10;;;;;;;11.70;7.90;;;;;;;;;;107854;1248;23796;-80
2023/04/22 08:15:36;;;;;;;11.00;7.90;;;;;;;;;;107681;1251;25302;-81
2023/04/22 08:18:02;;;;;;;9.00;6.70;;;;;;;;;;107905;1247;24516;-80
2023/04/22 08:20:29;;;;;;;10.90;4.40;;;;;;;;;;107910;1248;22518;-80
2023/04/22 08:22:59;;;;;;;9.60;4.30;;;;;;;;;;108400;1248;22545;-80
2023/04/22 08:25:25;;;;;;;9.80;4.70;;;;;;;;;;108446;1247;22560;-80
2023/04/22 08:27:52;;;;;;;8.40;4.50;;;;;;;;;;109262;1247;22563;-80
2023/04/22 08:30:18;;;;;;;5.80;3.80;;;;;;;;;;108841;1249;22523;-80
2023/04/22 08:32:45;;;;;;;5.40;3.40;;;;;;;;;;108520;1247;22528;-80
2023/04/22 08:35:11;;;;;;;6.80;4.20;;;;;;;;;;108344;1251;24253;-81
2023/04/22 08:37:39;;;;;;;9.80;3.50;;;;;;;;;;108567;1247;25475;-81
2023/04/22 08:40:07;;;;;;;8.50;3.90;;;;;;;;;;108446;1247;22080;-80
2023/04/22 08:42:33;;;;;;;5.60;3.70;;;;;;;;;;108487;1247;22742;-80
2023/04/22 08:45:00;;;;;;;6.80;3.40;;;;;;;;;;108562;1247;22944;-80
2023/04/22 08:47:27;;;;;;;13.10;4.40;;;;;;;;;;108468;1247;22558;-80
2023/04/22 08:49:53;;;;;;;6.70;3.70;;;;;;;;;;108437;1252;25217;-80
2023/04/22 08:52:20;;;;;;;4.50;3.50;;;;;;;;;;108453;1247;22993;-81
2023/04/22 08:54:47;;;;;;;4.80;3.00;;;;;;;;;;108453;1248;23002;-80
2023/04/22 08:57:13;;;;;;;5.30;3.50;;;;;;;;;;108481;1247;22540;-80
2023/04/22 08:59:40;;;;;;;5.50;3.30;;;;;;;;;;108332;1247;23084;-80
2023/04/22 09:02:07;;;;;;;6.80;3.70;;;;;;;;;;108443;1253;26379;-81
2023/04/22 09:04:34;;;;;;;5.60;3.70;;;;;;;;;;108292;1247;23015;-80
2023/04/22 09:07:00;;;;;;;6.80;3.50;;;;;;;;;;108426;1252;22537;-81
2023/04/22 09:09:26;;;;;;;6.30;3.40;;;;;;;;;;108567;1248;25449;-81
2023/04/22 09:11:52;;;;;;;7.10;3.20;;;;;;;;;;108268;1247;25380;-81
2023/04/22 09:14:19;;;;;;;4.40;3.10;;;;;;;;;;108513;1248;23238;-81
2023/04/22 09:16:46;;;;;;;9.70;3.40;;;;;;;;;;108284;1251;26324;-81
2023/04/22 09:19:13;;;;;;;8.20;3.60;;;;;;;;;;108469;1247;22658;-81
2023/04/22 09:21:42;;;;;;;4.40;3.20;;;;;;;;;;108452;1247;22528;-81
2023/04/22 09:24:09;;;;;;;5.00;3.20;;;;;;;;;;108462;1247;22523;-81
2023/04/22 09:26:40;;;;;;;5.10;3.10;;;;;;;;;;108443;1247;26028;-81
2023/04/22 09:29:08;;;;;;;5.60;3.40;;;;;;;;;;109030;1248;25267;-81
2023/04/22 09:31:36;;;;;;;8.50;3.00;;;;;;;;;;108659;1247;22703;-81
2023/04/22 09:34:03;;;;;;;7.80;2.80;;;;;;;;;;108444;1248;22634;-81
2023/04/22 09:36:30;;;;;;;10.60;3.10;;;;;;;;;;108604;1251;22520;-81
2023/04/22 09:38:57;;;;;;;10.00;3.30;;;;;;;;;;108239;1247;22675;-81
2023/04/22 09:41:27;;;;;;;5.90;3.60;;;;;;;;;;108415;1248;59607;-81
2023/04/22 09:43:55;;;;;;;6.00;2.90;;;;;;;;;;108287;1250;23310;-81
2023/04/22 09:46:23;;;;;;;7.90;3.50;;;;;;;;;;110110;1247;22522;-82
2023/04/22 09:48:49;;;;;;;7.70;3.80;;;;;;;;;;108529;1248;22649;-81
2023/04/22 09:51:16;;;;;;;7.40;3.40;;;;;;;;;;108531;1247;24183;-82
2023/04/22 09:53:42;;;;;;;4.10;3.10;;;;;;;;;;108287;1247;22548;-82
2023/04/22 09:56:09;;;;;;;7.00;3.60;;;;;;;;;;108418;1248;24243;-81
2023/04/22 09:58:38;;;;;;;8.70;2.80;;;;;;;;;;108482;1247;59359;-82
2023/04/22 10:01:05;;;;;;;5.80;3.50;;;;;;;;;;107821;1248;61951;-82
2023/04/22 10:03:31;;;;;;;9.30;3.60;;;;;;;;;;107687;1247;62033;-81
2023/04/22 10:05:58;;;;;;;6.00;2.80;;;;;;;;;;107578;1247;62107;-80
2023/04/22 10:08:24;;;;;;;7.20;3.70;;;;;;;;;;107632;1253;62030;-81
2023/04/22 10:10:51;;;;;;;4.30;3.10;;;;;;;;;;107688;1248;61959;-81
2023/04/22 10:13:17;;;;;;;8.70;3.60;;;;;;;;;;107332;1248;62033;-81
2023/04/22 10:15:51;;;;;;;6.20;3.60;;;;;;;;;;107342;1254;62127;-81
2023/04/22 10:18:18;;;;;;;8.50;3.50;;;;;;;;;;107437;1247;62053;-81
2023/04/22 10:20:44;;;;;;;5.60;3.70;;;;;;;;;;107779;1247;62069;-81
2023/04/22 10:23:11;;;;;;;6.10;3.80;;;;;;;;;;107671;1248;60656;-80
2023/04/22 10:25:38;;;;;;;8.30;3.10;;;;;;;;;;107478;1247;62050;-80
2023/04/22 10:28:06;;;;;;;10.40;3.90;;;;;;;;;;107370;1248;62127;-80
2023/04/22 10:30:35;;;;;;;5.30;3.70;;;;;;;;;;107616;1247;61926;-80
2023/04/22 10:33:20;;;;;;;4.90;4.00;;;;;;;;;;107591;1248;62156;-80
2023/04/22 10:36:07;;;;;;;9.90;4.50;;;;;;;;;;107387;1253;62060;-80
2023/04/22 10:38:34;;;;;;;4.90;3.80;;;;;;;;;;107224;1253;62116;-80
2023/04/22 10:41:00;;;;;;;6.70;4.20;;;;;;;;;;107179;1249;62129;-80
2023/04/22 10:43:39;;;;;;;7.60;4.00;;;;;;;;;;107352;1247;62123;-80
2023/04/22 10:46:05;;;;;;;5.50;4.10;;;;;;;;;;107468;1251;62017;-80
2023/04/22 10:48:49;;;;;;;10.50;4.20;;;;;;;;;;107361;1247;61934;-80
2023/04/22 10:51:34;;;;;;;12.30;5.90;;;;;;;;;;107420;1248;62022;-80
2023/04/22 10:54:01;;;;;;;4.40;3.30;;;;;;;;;;107358;1251;62024;-80
2023/04/22 10:56:28;;;;;;;8.70;3.90;;;;;;;;;;107266;1253;62025;-80
2023/04/22 10:58:57;;;;;;;10.00;4.50;;;;;;;;;;107311;1247;62155;-80
2023/04/22 11:01:26;;;;;;;6.80;4.40;;;;;;;;;;107569;1247;62117;-80
2023/04/22 11:03:52;;;;;;;18.70;6.40;;;;;;;;;;107308;1252;62396;-80
2023/04/22 11:06:21;;;;;;;7.50;4.40;;;;;;;;;;107288;1247;61960;-80
2023/04/22 11:08:47;;;;;;;8.10;3.90;;;;;;;;;;107301;1248;63046;-81
2023/04/22 11:11:15;;;;;;;6.10;3.60;;;;;;;;;;107333;1247;62168;-79
2023/04/22 11:13:42;;;;;;;8.00;4.90;;;;;;;;;;106889;1248;60668;-80
2023/04/22 11:16:09;;;;;;;7.90;4.80;;;;;;;;;;107099;1247;61949;-79
2023/04/22 11:18:35;;;;;;;6.70;3.60;;;;;;;;;;107636;1248;61771;-80
2023/04/22 11:21:05;;;;;;;5.60;3.80;;;;;;;;;;106999;1247;62126;-80
2023/04/22 11:23:31;;;;;;;5.50;4.20;;;;;;;;;;107788;1250;24475;-79
2023/04/22 11:26:04;;;;;;;11.10;4.20;;;;;;;;;;107611;1251;25494;-80
2023/04/22 11:28:31;;;;;;;7.30;3.60;;;;;;;;;;107603;1247;25033;-79
2023/04/22 11:31:01;;;;;;;4.90;3.50;;;;;;;;;;107770;1252;22546;-80
2023/04/22 11:33:27;;;;;;;5.50;3.30;;;;;;;;;;107777;1247;25321;-80
2023/04/22 11:35:56;;;;;;;6.10;4.10;;;;;;;;;;107652;1247;22655;-81
2023/04/22 11:38:22;;;;;;;5.60;4.20;;;;;;;;;;108525;1247;22578;-81
2023/04/22 11:40:49;;;;;;;4.90;3.70;;;;;;;;;;108456;1247;22616;-80
2023/04/22 11:43:17;;;;;;;8.10;3.80;;;;;;;;;;108479;1247;24178;-80
2023/04/22 11:45:43;;;;;;;5.80;4.00;;;;;;;;;;108284;1247;25487;-78
2023/04/22 11:48:10;;;;;;;5.10;3.90;;;;;;;;;;107582;1254;22537;-78
2023/04/22 11:50:37;;;;;;;6.80;4.00;;;;;;;;;;107720;1247;25230;-78
2023/04/22 11:53:04;;;;;;;5.70;4.20;;;;;;;;;;107792;1250;25392;-78
2023/04/22 11:55:31;;;;;;;6.00;3.60;;;;;;;;;;107753;1247;22518;-78
2023/04/22 11:58:08;;;;;;;5.60;4.00;;;;;;;;;;106933;1248;61999;-78
2023/04/22 12:00:41;;;;;;;7.30;4.00;;;;;;;;;;106874;1247;62059;-78
2023/04/22 12:03:11;;;;;;;12.90;4.70;;;;;;;;;;106858;1248;62087;-78
2023/04/22 12:05:40;;;;;;;5.10;3.60;;;;;;;;;;106878;1249;62021;-80
2023/04/22 12:08:08;;;;;;;5.40;3.40;;;;;;;;;;107308;1253;62053;-78
2023/04/22 12:10:38;;;;;;;7.50;4.00;;;;;;;;;;106834;1247;62115;-79
2023/04/22 12:13:05;;;;;;;6.60;4.00;;;;;;;;;;106945;1252;62139;-78
2023/04/22 12:15:41;;;;;;;5.60;3.90;;;;;;;;;;106866;1253;62036;-78
2023/04/22 12:18:08;;;;;;;8.00;4.10;;;;;;;;;;106839;1252;62036;-79
2023/04/22 12:20:34;;;;;;;7.40;3.90;;;;;;;;;;106843;1248;62138;-81
2023/04/22 12:23:02;;;;;;;10.10;6.00;;;;;;;;;;106833;1247;62051;-80
2023/04/22 12:25:28;;;;;;;7.10;4.50;;;;;;;;;;106663;1248;62117;-80
2023/04/22 12:27:56;;;;;;;6.50;3.80;;;;;;;;;;106943;1247;62007;-80
2023/04/22 12:30:23;;;;;;;7.30;3.60;;;;;;;;;;107198;1251;62031;-81
2023/04/22 12:32:50;;;;;;;6.60;4.10;;;;;;;;;;107705;1248;62069;-80
2023/04/22 12:35:17;;;;;;;6.30;3.70;;;;;;;;;;107708;1247;62145;-80
2023/04/22 12:37:43;;;;;;;5.60;3.30;;;;;;;;;;107650;1248;61501;-80
2023/04/22 12:40:10;;;;;;;6.50;3.30;;;;;;;;;;107703;1251;62149;-80
2023/04/22 12:42:36;;;;;;;6.20;3.90;;;;;;;;;;107706;1251;62195;-80
2023/04/22 12:45:03;;;;;;;6.30;3.70;;;;;;;;;;107721;1248;62020;-80
2023/04/22 12:47:29;;;;;;;14.80;11.40;;;;;;;;;;107713;1253;62235;-80
2023/04/22 12:49:57;;;;;;;9.00;5.70;;;;;;;;;;107473;1249;62068;-80
2023/04/22 12:52:23;;;;;;;6.90;4.00;;;;;;;;;;107783;1248;61906;-80
2023/04/22 12:54:50;;;;;;;5.40;3.50;;;;;;;;;;107456;1248;62038;-80
2023/04/22 12:57:16;;;;;;;7.30;4.00;;;;;;;;;;107456;1250;62085;-81
2023/04/22 12:59:44;;;;;;;4.80;3.00;;;;;;;;;;107498;1250;62066;-80
2023/04/22 13:02:10;;;;;;;5.70;3.80;;;;;;;;;;107491;1247;62050;-80
2023/04/22 13:04:37;;;;;;;8.20;3.50;;;;;;;;;;107574;1247;62009;-80
2023/04/22 13:07:03;;;;;;;8.90;4.00;;;;;;;;;;107548;1247;62079;-81
2023/04/22 13:09:29;;;;;;;13.00;5.70;;;;;;;;;;107583;1248;62052;-80
2023/04/22 13:11:57;;;;;;;12.10;5.70;;;;;;;;;;107588;1248;63562;-81
2023/04/22 13:14:23;;;;;;;13.20;5.70;;;;;;;;;;107600;1247;63915;-81
2023/04/22 13:16:50;;;;;;;7.50;3.70;;;;;;;;;;107381;1247;62155;-81
2023/04/22 13:19:17;;;;;;;5.30;3.60;;;;;;;;;;107656;1247;60758;-81
2023/04/22 13:21:43;;;;;;;3.80;2.80;;;;;;;;;;107533;1247;61992;-81
2023/04/22 13:24:10;;;;;;;7.40;3.50;;;;;;;;;;107634;1248;62040;-81
2023/04/22 13:26:37;;;;;;;4.40;3.10;;;;;;;;;;107640;1252;62069;-81
2023/04/22 13:29:09;;;;;;;6.00;3.10;;;;;;;;;;107691;1248;62056;-81
2023/04/22 13:31:37;;;;;;;5.10;3.20;;;;;;;;;;107632;1247;61973;-81
2023/04/22 13:34:03;;;;;;;7.50;4.10;;;;;;;;;;107276;1248;62134;-81
2023/04/22 13:36:30;;;;;;;5.20;3.10;;;;;;;;;;107379;1248;62174;-80
2023/04/22 13:38:56;;;;;;;7.20;3.90;;;;;;;;;;107262;1247;62139;-81
2023/04/22 13:41:22;;;;;;;7.30;4.10;;;;;;;;;;107249;1247;62107;-81
2023/04/22 13:43:53;;;;;;;8.30;5.60;;;;;;;;;;107306;1252;62126;-81
2023/04/22 13:46:19;;;;;;;3.70;2.60;;;;;;;;;;107261;1252;62057;-80
2023/04/22 13:48:46;;;;;;;6.40;3.90;;;;;;;;;;107257;1252;62014;-80
2023/04/22 13:51:13;;;;;;;3.80;3.00;;;;;;;;;;107106;1250;62003;-80
2023/04/22 13:53:40;;;;;;;7.00;2.90;;;;;;;;;;107123;1247;62140;-80
2023/04/22 13:56:06;;;;;;;6.10;2.90;;;;;;;;;;107040;1250;61928;-81
2023/04/22 13:58:32;;;;;;;5.70;4.30;;;;;;;;;;107159;1247;159352;-81
2023/04/22 14:00:59;;;;;;;4.60;3.60;;;;;;;;;;107250;1247;62098;-80
2023/04/22 14:03:27;;;;;;;7.30;3.80;;;;;;;;;;107322;1248;62066;-82
2023/04/22 14:05:53;;;;;;;4.80;3.50;;;;;;;;;;107348;1247;62607;-81
2023/04/22 14:08:20;;;;;;;5.20;3.00;;;;;;;;;;107313;1252;62149;-81
2023/04/22 14:10:46;;;;;;;6.00;3.60;;;;;;;;;;107338;1247;62008;-81
2023/04/22 14:13:12;;;;;;;5.50;3.90;;;;;;;;;;107283;1247;62168;-80